createdAt,value
2022-12-16T00:00:48.543Z,10.10
2022-12-16T00:03:34.456Z,9.18
2022-12-16T00:06:21.036Z,11.55
2022-12-16T00:09:06.051Z,9.35
2022-12-16T00:11:51.510Z,9.77
2022-12-16T00:14:36.897Z,9.65
2022-12-16T00:17:22.377Z,9.82
2022-12-16T00:20:08.315Z,10.00
2022-12-16T00:22:53.763Z,10.02
2022-12-16T00:25:39.232Z,9.57
2022-12-16T00:28:25.313Z,8.73
2022-12-16T00:31:10.897Z,9.35
2022-12-16T00:33:57.409Z,9.88
2022-12-16T00:36:43.746Z,9.05
2022-12-16T00:39:29.245Z,10.10
2022-12-16T00:42:14.470Z,9.75
2022-12-16T00:44:59.934Z,9.07
2022-12-16T00:47:45.315Z,8.63
2022-12-16T00:50:30.753Z,8.60
2022-12-16T00:53:16.863Z,8.90
2022-12-16T00:56:07.068Z,8.68
2022-12-16T00:58:52.132Z,8.75
2022-12-16T01:01:37.656Z,8.98
2022-12-16T01:04:23.010Z,9.20
2022-12-16T01:07:09.450Z,9.32
2022-12-16T01:09:54.669Z,9.07
2022-12-16T01:12:40.132Z,7.35
2022-12-16T01:15:25.584Z,7.50
2022-12-16T01:18:10.946Z,7.40
2022-12-16T01:21:02.993Z,7.53
2022-12-16T01:23:48.371Z,6.85
2022-12-16T01:26:33.660Z,7.15
2022-12-16T01:29:19.103Z,6.68
2022-12-16T01:32:04.898Z,6.43
2022-12-16T01:34:55.392Z,6.85
2022-12-16T01:37:41.233Z,5.28
2022-12-16T01:40:26.498Z,6.13
2022-12-16T01:43:14.009Z,5.95
2022-12-16T01:46:14.152Z,6.75
2022-12-16T01:49:08.028Z,5.90
2022-12-16T01:51:57.421Z,5.82
2022-12-16T01:54:46.678Z,6.30
2022-12-16T01:57:46.549Z,5.40
2022-12-16T02:00:32.058Z,6.20
2022-12-16T02:03:17.665Z,4.85
2022-12-16T02:06:05.483Z,4.88
2022-12-16T02:08:56.989Z,4.53
2022-12-16T02:12:25.651Z,4.32
2022-12-16T02:15:10.505Z,5.15
2022-12-16T02:18:10.446Z,5.55
2022-12-16T02:21:13.561Z,5.32
2022-12-16T02:24:19.388Z,4.80
2022-12-16T02:27:18.826Z,4.57
2022-12-16T02:30:48.533Z,5.50
2022-12-16T02:33:55.714Z,4.38
2022-12-16T02:36:56.644Z,4.07
2022-12-16T02:40:02.436Z,3.67
2022-12-16T02:42:57.902Z,3.50
2022-12-16T02:45:44.225Z,5.22
2022-12-16T02:48:29.289Z,3.28
2022-12-16T02:51:15.041Z,3.22
2022-12-16T02:54:00.108Z,3.72
2022-12-16T02:57:13.889Z,3.58
2022-12-16T03:00:15.713Z,3.15
2022-12-16T03:03:08.936Z,3.20
2022-12-16T03:05:56.358Z,3.15
2022-12-16T03:08:46.058Z,4.70
2022-12-16T03:11:32.199Z,3.50
2022-12-16T03:14:20.340Z,3.80
2022-12-16T03:17:07.457Z,3.75
2022-12-16T03:20:25.458Z,3.90
2022-12-16T03:23:16.216Z,4.38
2022-12-16T03:26:09.720Z,4.97
2022-12-16T03:29:11.309Z,3.50
2022-12-16T03:32:04.614Z,3.53
2022-12-16T03:34:58.347Z,2.67
2022-12-16T03:37:46.496Z,2.92
2022-12-16T03:40:32.750Z,2.60
2022-12-16T03:43:18.770Z,2.90
2022-12-16T03:46:07.437Z,3.25
2022-12-16T03:48:52.809Z,3.25
2022-12-16T03:51:37.941Z,4.13
2022-12-16T03:54:24.209Z,4.53
2022-12-16T03:57:14.693Z,3.90
2022-12-16T04:00:01.091Z,3.95
2022-12-16T04:02:46.722Z,5.43
2022-12-16T04:05:32.149Z,5.75
2022-12-16T04:08:17.664Z,5.40
2022-12-16T04:11:21.340Z,5.32
2022-12-16T04:14:27.369Z,5.93
2022-12-16T04:17:32.099Z,6.43
2022-12-16T04:20:44.502Z,6.20
2022-12-16T04:23:50.630Z,5.75
2022-12-16T04:26:56.012Z,6.22
2022-12-16T04:29:59.762Z,5.95
2022-12-16T04:33:05.069Z,6.68
2022-12-16T04:36:09.024Z,7.18
2022-12-16T04:39:12.690Z,6.68
2022-12-16T04:42:16.309Z,6.80
2022-12-16T04:45:20.480Z,6.75
2022-12-16T04:48:25.068Z,6.03
2022-12-16T04:51:29.064Z,6.13
2022-12-16T04:54:33.084Z,6.72
2022-12-16T04:57:37.163Z,6.75
2022-12-16T05:00:42.195Z,7.65
2022-12-16T05:03:46.637Z,6.63
2022-12-16T05:06:50.376Z,6.93
2022-12-16T05:09:54.260Z,6.43
2022-12-16T05:12:58.134Z,6.63
2022-12-16T05:16:02.070Z,8.52
2022-12-16T05:19:05.987Z,6.22
2022-12-16T05:22:09.978Z,7.38
2022-12-16T05:25:13.888Z,6.72
2022-12-16T05:28:17.850Z,7.57
2022-12-16T05:31:21.519Z,8.40
2022-12-16T05:34:26.966Z,8.20
2022-12-16T05:37:30.900Z,7.80
2022-12-16T05:40:54.669Z,8.07
2022-12-16T05:43:58.871Z,7.45
2022-12-16T05:47:02.754Z,8.05
2022-12-16T05:50:06.544Z,8.13
2022-12-16T05:53:12.393Z,7.70
2022-12-16T05:56:16.315Z,9.57
2022-12-16T05:59:20.192Z,9.75
2022-12-16T06:02:24.239Z,8.45
2022-12-16T06:05:28.101Z,8.68
2022-12-16T06:08:32.078Z,8.45
2022-12-16T06:11:35.864Z,8.65
2022-12-16T06:14:39.677Z,9.07
2022-12-16T06:17:43.541Z,9.27
2022-12-16T06:21:01.210Z,10.20
2022-12-16T06:24:05.240Z,9.73
2022-12-16T06:27:09.031Z,9.00
2022-12-16T06:30:12.769Z,9.95
2022-12-16T06:33:16.643Z,10.52
2022-12-16T06:36:20.417Z,8.20
2022-12-16T06:39:24.224Z,10.35
2022-12-16T06:42:27.900Z,9.93
2022-12-16T06:45:34.832Z,9.70
2022-12-16T06:48:39.419Z,10.68
2022-12-16T06:51:43.338Z,10.10
2022-12-16T06:54:47.242Z,9.25
2022-12-16T06:57:51.196Z,10.48
2022-12-16T07:00:55.387Z,9.20
2022-12-16T07:03:59.353Z,9.77
2022-12-16T07:07:03.219Z,9.80
2022-12-16T07:10:07.445Z,12.07
2022-12-16T07:13:11.317Z,11.40
2022-12-16T07:16:15.345Z,10.75
2022-12-16T07:19:19.110Z,10.40
2022-12-16T07:22:22.824Z,11.48
2022-12-16T07:25:27.000Z,10.93
2022-12-16T07:28:30.990Z,11.85
2022-12-16T07:31:34.922Z,11.27
2022-12-16T07:34:41.412Z,12.20
2022-12-16T07:37:47.569Z,12.32
2022-12-16T07:40:51.576Z,11.10
2022-12-16T07:43:55.484Z,12.23
2022-12-16T07:46:59.414Z,12.30
2022-12-16T07:50:03.208Z,11.65
2022-12-16T07:53:13.783Z,12.88
2022-12-16T07:56:17.605Z,11.63
2022-12-16T07:59:21.445Z,12.88
2022-12-16T08:02:28.436Z,12.20
2022-12-16T08:05:32.205Z,13.18
2022-12-16T08:08:36.097Z,13.68
2022-12-16T08:11:40.208Z,13.23
2022-12-16T08:14:44.112Z,12.90
2022-12-16T08:17:48.079Z,12.93
2022-12-16T08:20:52.007Z,11.70
2022-12-16T08:23:58.880Z,14.10
2022-12-16T08:27:03.370Z,13.13
2022-12-16T08:30:07.228Z,15.02
2022-12-16T08:33:18.916Z,13.75
2022-12-16T08:36:23.915Z,14.50
2022-12-16T08:39:27.828Z,14.15
2022-12-16T08:42:31.742Z,12.80
2022-12-16T08:45:36.066Z,12.43
2022-12-16T08:48:39.831Z,11.80
2022-12-16T08:51:44.023Z,13.82
2022-12-16T08:54:47.788Z,13.07
2022-12-16T08:57:51.940Z,13.55
2022-12-16T09:00:55.859Z,13.55
2022-12-16T09:03:59.709Z,13.27
2022-12-16T09:07:03.513Z,14.07
2022-12-16T09:10:07.320Z,13.13
2022-12-16T09:13:11.118Z,13.63
2022-12-16T09:16:19.281Z,12.43
2022-12-16T09:19:23.486Z,12.05
2022-12-16T09:22:27.177Z,13.63
2022-12-16T09:25:31.255Z,14.68
2022-12-16T09:28:35.249Z,13.40
2022-12-16T09:31:39.085Z,13.82
2022-12-16T09:34:42.829Z,14.68
2022-12-16T09:37:46.837Z,13.50
2022-12-16T09:40:51.308Z,15.23
2022-12-16T09:44:18.281Z,14.00
2022-12-16T09:47:44.901Z,16.75
2022-12-16T09:50:49.999Z,14.45
2022-12-16T09:53:55.697Z,15.23
2022-12-16T09:57:02.117Z,15.55
2022-12-16T10:00:19.228Z,14.45
2022-12-16T10:03:49.222Z,14.57
2022-12-16T10:06:56.418Z,15.70
2022-12-16T10:10:21.693Z,16.10
2022-12-16T10:14:00.523Z,14.10
2022-12-16T10:17:23.781Z,14.02
2022-12-16T10:21:02.859Z,14.95
2022-12-16T10:24:38.374Z,14.07
2022-12-16T10:27:56.362Z,13.77
2022-12-16T10:31:00.600Z,15.63
2022-12-16T10:34:08.979Z,14.95
2022-12-16T10:37:19.122Z,15.93
2022-12-16T10:40:25.885Z,15.75
2022-12-16T10:43:38.484Z,17.10
2022-12-16T10:46:48.229Z,16.60
2022-12-16T10:49:54.747Z,16.45
2022-12-16T10:53:08.380Z,15.85
2022-12-16T10:56:36.794Z,15.98
2022-12-16T10:59:40.815Z,15.77
2022-12-16T11:02:46.480Z,16.73
2022-12-16T11:05:53.207Z,16.45
2022-12-16T11:08:57.317Z,16.88
2022-12-16T11:12:01.289Z,15.85
2022-12-16T11:15:28.589Z,15.25
2022-12-16T11:18:34.260Z,13.98
2022-12-16T11:21:39.980Z,15.15
2022-12-16T11:24:43.749Z,15.43
2022-12-16T11:27:58.298Z,15.00
2022-12-16T11:31:02.180Z,15.93
2022-12-16T11:34:07.394Z,15.90
2022-12-16T11:37:12.358Z,15.60
2022-12-16T11:40:18.088Z,14.70
2022-12-16T11:43:24.128Z,15.38
2022-12-16T11:46:32.750Z,17.08
2022-12-16T11:49:50.851Z,15.50
2022-12-16T11:52:55.753Z,15.43
2022-12-16T11:56:10.837Z,16.30
2022-12-16T11:59:23.020Z,15.98
2022-12-16T12:02:38.299Z,14.57
2022-12-16T12:05:49.735Z,15.98
2022-12-16T12:08:57.847Z,15.05
2022-12-16T12:12:13.834Z,15.77
2022-12-16T12:15:52.392Z,16.27
2022-12-16T12:19:17.086Z,17.05
2022-12-16T12:23:03.269Z,16.38
2022-12-16T12:26:24.138Z,15.82
2022-12-16T12:29:43.285Z,17.33
2022-12-16T12:33:10.366Z,18.10
2022-12-16T12:36:28.850Z,15.82
2022-12-16T12:39:48.189Z,13.90
2022-12-16T12:42:59.060Z,14.55
2022-12-16T12:46:05.819Z,14.38
2022-12-16T12:49:16.713Z,14.68
2022-12-16T12:52:35.007Z,15.90
2022-12-16T12:56:01.042Z,15.70
2022-12-16T12:59:06.403Z,14.05
2022-12-16T13:02:12.312Z,14.90
2022-12-16T13:05:22.481Z,14.23
2022-12-16T13:09:03.416Z,16.92
2022-12-16T13:12:25.650Z,16.15
2022-12-16T13:15:53.506Z,16.33
2022-12-16T13:18:57.461Z,17.38
2022-12-16T13:22:02.353Z,17.10
2022-12-16T13:25:09.319Z,19.20
2022-12-16T13:28:15.407Z,16.80
2022-12-16T13:31:25.503Z,17.15
2022-12-16T13:34:32.580Z,16.35
2022-12-16T13:37:45.880Z,16.52
2022-12-16T13:41:17.468Z,17.27
2022-12-16T13:44:21.329Z,15.20
2022-12-16T13:47:52.262Z,15.15
2022-12-16T13:50:59.250Z,17.80
2022-12-16T13:54:21.726Z,15.07
2022-12-16T13:57:32.335Z,16.58
2022-12-16T14:00:47.154Z,16.02
2022-12-16T14:04:06.286Z,16.35
2022-12-16T14:07:10.665Z,15.45
2022-12-16T14:10:14.645Z,17.20
2022-12-16T14:13:23.174Z,17.70
2022-12-16T14:16:55.060Z,16.23
2022-12-16T14:20:20.140Z,16.20
2022-12-16T14:24:00.677Z,17.17
2022-12-16T14:27:04.964Z,17.83
2022-12-16T14:30:09.562Z,17.77
2022-12-16T14:33:13.522Z,16.33
2022-12-16T14:36:17.370Z,18.50
2022-12-16T14:39:21.194Z,18.38
2022-12-16T14:42:41.942Z,18.08
2022-12-16T14:45:54.361Z,17.90
2022-12-16T14:48:58.349Z,16.73
2022-12-16T14:52:06.680Z,18.63
2022-12-16T14:55:10.540Z,17.55
2022-12-16T14:58:29.636Z,18.90
2022-12-16T15:01:41.764Z,17.85
2022-12-16T15:04:46.111Z,17.30
2022-12-16T15:07:55.903Z,16.10
2022-12-16T15:11:00.402Z,17.20
2022-12-16T15:14:09.168Z,18.20
2022-12-16T15:17:14.200Z,19.92
2022-12-16T15:20:18.146Z,17.02
2022-12-16T15:23:22.148Z,20.52
2022-12-16T15:26:27.294Z,19.27
2022-12-16T15:29:48.016Z,20.75
2022-12-16T15:32:53.817Z,20.52
2022-12-16T15:35:57.885Z,18.75
2022-12-16T15:39:01.718Z,18.60
2022-12-16T15:42:06.345Z,19.50
2022-12-16T15:45:10.814Z,20.42
2022-12-16T15:48:15.186Z,20.30
2022-12-16T15:51:19.280Z,20.85
2022-12-16T15:54:23.292Z,22.20
2022-12-16T15:57:48.566Z,19.85
2022-12-16T16:00:52.326Z,19.98
2022-12-16T16:04:11.231Z,21.77
2022-12-16T16:07:14.945Z,20.65
2022-12-16T16:10:33.105Z,21.75
2022-12-16T16:13:37.121Z,19.23
2022-12-16T16:16:41.284Z,21.10
2022-12-16T16:19:46.001Z,19.95
2022-12-16T16:22:50.082Z,21.63
2022-12-16T16:25:55.331Z,19.77
2022-12-16T16:29:01.922Z,21.23
2022-12-16T16:32:06.029Z,21.30
2022-12-16T16:35:09.889Z,23.25
2022-12-16T16:38:18.180Z,20.40
2022-12-16T16:41:22.349Z,21.83
2022-12-16T16:44:26.312Z,22.00
2022-12-16T16:47:35.594Z,21.90
2022-12-16T16:50:39.414Z,23.42
2022-12-16T16:53:43.236Z,20.30
2022-12-16T16:56:51.177Z,20.33
2022-12-16T16:59:55.028Z,21.95
2022-12-16T17:02:59.039Z,21.50
2022-12-16T17:06:02.976Z,19.50
2022-12-16T17:09:06.917Z,22.40
2022-12-16T17:12:27.726Z,22.83
2022-12-16T17:15:43.066Z,22.25
2022-12-16T17:18:51.956Z,21.27
2022-12-16T17:21:56.429Z,23.23
2022-12-16T17:25:00.259Z,19.48
2022-12-16T17:28:04.662Z,20.30
2022-12-16T17:31:09.333Z,20.20
2022-12-16T17:34:13.157Z,21.92
2022-12-16T17:37:17.004Z,21.25
2022-12-16T17:40:20.776Z,20.88
2022-12-16T17:43:24.729Z,21.17
2022-12-16T17:46:30.815Z,22.70
2022-12-16T17:49:34.477Z,18.95
2022-12-16T17:52:38.396Z,20.00
2022-12-16T17:55:42.504Z,19.33
2022-12-16T17:58:55.231Z,21.98
2022-12-16T18:01:59.571Z,20.33
2022-12-16T18:05:03.350Z,21.33
2022-12-16T18:08:07.314Z,20.30
2022-12-16T18:11:16.356Z,20.60
2022-12-16T18:14:20.157Z,19.80
2022-12-16T18:17:24.452Z,21.45
2022-12-16T18:20:28.659Z,22.13
2022-12-16T18:23:32.785Z,19.27
2022-12-16T18:26:36.966Z,20.08
2022-12-16T18:29:40.677Z,20.20
2022-12-16T18:32:44.630Z,19.52
2022-12-16T18:35:48.392Z,20.73
2022-12-16T18:38:52.400Z,21.08
2022-12-16T18:42:00.730Z,19.80
2022-12-16T18:45:07.048Z,18.95
2022-12-16T18:48:10.845Z,16.55
2022-12-16T18:51:16.927Z,18.52
2022-12-16T18:54:20.666Z,18.77
2022-12-16T18:57:25.654Z,19.05
2022-12-16T19:00:30.155Z,18.85
2022-12-16T19:03:34.495Z,18.05
2022-12-16T19:06:38.384Z,18.30
2022-12-16T19:09:42.607Z,17.58
2022-12-16T19:12:46.590Z,19.33
2022-12-16T19:15:50.484Z,19.15
2022-12-16T19:18:54.341Z,20.08
2022-12-16T19:21:59.828Z,20.42
2022-12-16T19:25:03.803Z,20.70
2022-12-16T19:28:07.723Z,19.10
2022-12-16T19:31:15.109Z,19.05
2022-12-16T19:34:18.968Z,20.58
2022-12-16T19:37:23.052Z,19.00
2022-12-16T19:40:28.087Z,18.73
2022-12-16T19:43:31.902Z,18.42
2022-12-16T19:46:36.168Z,19.35
2022-12-16T19:49:44.166Z,20.50
2022-12-16T19:52:48.782Z,19.10
2022-12-16T19:55:52.598Z,19.33
2022-12-16T19:58:57.341Z,20.42
2022-12-16T20:02:01.293Z,20.52
2022-12-16T20:05:05.651Z,20.75
2022-12-16T20:08:10.490Z,19.80
2022-12-16T20:11:14.375Z,19.05
2022-12-16T20:14:19.436Z,19.35
2022-12-16T20:17:23.136Z,18.30
2022-12-16T20:20:27.522Z,18.90
2022-12-16T20:23:31.384Z,17.35
2022-12-16T20:26:35.276Z,16.90
2022-12-16T20:29:39.192Z,19.55
2022-12-16T20:32:43.495Z,17.85
2022-12-16T20:35:47.750Z,18.38
2022-12-16T20:38:53.114Z,20.00
2022-12-16T20:41:57.046Z,18.75
2022-12-16T20:45:00.992Z,18.38
2022-12-16T20:48:05.305Z,18.00
2022-12-16T20:51:14.464Z,17.92
2022-12-16T20:54:18.436Z,20.55
2022-12-16T20:57:22.274Z,20.80
2022-12-16T21:00:27.750Z,17.17
2022-12-16T21:03:31.936Z,18.63
2022-12-16T21:06:36.476Z,15.80
2022-12-16T21:09:40.600Z,17.70
2022-12-16T21:12:44.353Z,19.02
2022-12-16T21:15:47.899Z,18.27
2022-12-16T21:18:52.184Z,17.70
2022-12-16T21:21:56.461Z,19.77
2022-12-16T21:25:00.346Z,19.48
2022-12-16T21:28:05.902Z,19.48
2022-12-16T21:31:09.956Z,19.08
2022-12-16T21:34:13.718Z,19.08
2022-12-16T21:37:17.974Z,16.75
2022-12-16T21:40:22.636Z,18.27
2022-12-16T21:43:26.312Z,17.45
2022-12-16T21:46:30.125Z,17.17
2022-12-16T21:49:33.992Z,18.08
2022-12-16T21:52:38.088Z,17.33
2022-12-16T21:55:41.919Z,18.00
2022-12-16T21:58:45.681Z,17.38
2022-12-16T22:01:49.492Z,17.35
2022-12-16T22:04:53.578Z,15.30
2022-12-16T22:07:57.396Z,17.75
2022-12-16T22:11:01.838Z,17.25
2022-12-16T22:14:05.851Z,16.08
2022-12-16T22:17:09.725Z,17.55
2022-12-16T22:20:13.555Z,17.63
2022-12-16T22:23:17.578Z,17.30
2022-12-16T22:26:21.682Z,15.23
2022-12-16T22:29:25.529Z,17.83
2022-12-16T22:32:29.292Z,16.80
2022-12-16T22:35:33.547Z,15.73
2022-12-16T22:38:37.728Z,17.40
2022-12-16T22:41:41.482Z,18.88
2022-12-16T22:44:45.284Z,19.70
2022-12-16T22:47:49.802Z,17.15
2022-12-16T22:50:53.766Z,17.60
2022-12-16T22:54:00.084Z,17.83
2022-12-16T22:57:04.050Z,18.83
2022-12-16T23:00:07.840Z,18.67
2022-12-16T23:03:11.622Z,17.40
2022-12-16T23:06:15.414Z,16.80
2022-12-16T23:09:19.330Z,17.85
2022-12-16T23:12:23.659Z,16.50
2022-12-16T23:15:30.524Z,18.30
2022-12-16T23:18:34.366Z,18.55
2022-12-16T23:21:38.733Z,17.80
2022-12-16T23:24:42.719Z,18.17
2022-12-16T23:28:06.490Z,16.85
2022-12-16T23:31:18.859Z,18.38
2022-12-16T23:34:22.668Z,16.30
2022-12-16T23:37:26.525Z,17.27
2022-12-16T23:40:30.517Z,17.02
2022-12-16T23:43:34.460Z,18.17
2022-12-16T23:46:38.180Z,14.65
2022-12-16T23:49:42.149Z,15.07
2022-12-16T23:52:46.339Z,17.38
2022-12-16T23:55:50.081Z,16.90
2022-12-16T23:58:53.980Z,17.55
